Aeroporto :
LOGIN :

Iscrizione | Disclaimer

   EN    FR    IT 

 










Sommario :    VFR   VFR Marginale   IFR   IFR Intensivo   IFR Molto Intensivo
Visibilità : 
Base nubi : 
>= 8 km
>= 3000ft
5 / 8 km
1000 / 3000 ft
1500m / 5 km
500 / 1000 ft
800 / 1500m
200 / 500 ft
< 800m
< 200 ft
Simboli :   Temporali  Nebbia  Neve Forte  Precipitazioni Forti  Vento > 20 kt
SIGMETs :   Varie  Temporali  Ghiacco  Turbolenza  Onda orograficha  Ceneri Vulcaniche






- Altitudine del aeroporto : 62 ft
- Codice IATA : TAN


GMTT - Tanger Ibn Batouta

ULTIMO METAR :
  • 012130Z 22009KT 180V240 9999 FEW026 BKN083 14/09 Q1014 RERA NOSIG

METARs OBSOLETI :
  • 012100Z 23010G23KT 190V260 9999 FEW033 BKN100 15/09 Q1015 NOSIG
  • 012030Z 22005KT 180V250 9999 FEW033 BKN100 14/11 Q1014 NOSIG
  • 012000Z 22005KT 9999 FEW033 BKN100 14/11 Q1014 NOSIG
  • 011930Z 24010KT 9999 FEW026 BKN040 14/11 Q1014 NOSIG
  • 011900Z 21006KT 180V240 9999 FEW026 BKN033 13/10 Q1014 RERA NOSIG

TAF TAF GMTT
Valido dal 01 a 18 ore il 03 a 00 ore UTC


011700Z 0118/0224 21009KT 9999 BKN020
TEMPO 0200/0215 3000 SHRA SCT010 SCT015TCU



MetMap, La meteo Aeronautica in un colpo d'occhio ! - Copyright ORBIFLY Dicembre 2007 - Disclaimer

ORBIFLY MET'MAP TEAM :

Programmazione e sviluppo : Alexandra Zaïnal
Concezione : Baudouin d'Aumeries
Aiuto per la programmazione : Marc-Olivier Méhu
Supporto tecnico e logistico : Manuel Goepfert
Aiuto per la traduzione : Arnaldo La Scala

Contatto : metmap@orbifly.com




FONTI E CREDITI :

   NOAA